• Join FlightAware (Why Join?)
  • Login
  • US Flag 
11:39AM EDT


 

Airport Tracker/Info


-or-


 

Live Flight TrackerFlight Track Log ✈ N41FR ✈ 16-Jun-2013 ✈ KORF - KMTN

Flight Track Log - Related Links

Times and Time Zones

All times are in EDT time to prevent confusion due to time zone crossing. See the N41FR flight status page for this flight to view local times or setup timezone preferences in your user account.

Time Position Orientation Groundspeed Altitude Reporting Facility
EDT Latitude Longitude Course Direction KTS MPH feet Rate Location/Type
11:16AM 36.8908 -76.2100 229° Southwest 62 71 500  Level Washington Center
11:17AM 36.8783 -76.2281 229° Southwest 78 90 1,500 1,140 Climbing Washington Center
11:18AM 36.8781 -76.2542 269° West 75 86 2,600 1,080 Climbing Washington Center
11:19AM 36.8781 -76.2878 270° West 79 91 3,900 900 Climbing Washington Center
11:20AM 36.8819 -76.3139 281° West 80 92 4,700 840 Climbing Washington Center
11:21AM 36.8964 -76.3319 315° West 107 123 5,600 780 Climbing Washington Center
11:22AM 36.9194 -76.3453 335° Northwest 88 101 6,400 660 Climbing Washington Center
11:23AM 36.9400 -76.3636 325° Northwest 94 108 6,900 300 Climbing Washington Center
11:24AM 36.9692 -76.3925 322° Northwest 140 161 7,000  Climbing Washington Center
11:25AM 37.0064 -76.4164 333° Northwest 149 171 7,000  Level Washington Center
11:26AM 37.0461 -76.4350 339° North 152 175 7,000  Level Washington Center
11:27AM 37.0814 -76.4589 332° Northwest 148 170 7,000  Level Washington Center
11:28AM 37.1167 -76.4828 332° Northwest 140 161 7,000  Level Washington Center
11:29AM 37.1519 -76.5117 327° Northwest 146 168 7,000  Level Washington Center
11:32AM 37.2333 -76.5667 332° Northwest 140 161 7,000  Level Potomac TRACON
11:33AM 37.2667 -76.5833 338° Northwest 139 160 7,000  Level Potomac TRACON
11:34AM 37.3000 -76.6000 338° Northwest 145 167 7,000 -60 Level Potomac TRACON
11:35AM 37.3500 -76.6000 360° North 158 182 6,900 -420 Descending Potomac TRACON
11:36AM 37.4000 -76.6000 360° North 177 204 6,200 -660 Descending Potomac TRACON
11:37AM 37.4500 -76.6167 345° North 186 214 5,600 -600 Descending Potomac TRACON
11:38AM 37.5000 -76.6167 360° North 179 206 5,000 -360 Descending Potomac TRACON
11:39AM 37.5500 -76.6167 360° North 168 193 5,000  Level Potomac TRACON
11:40AM 37.6000 -76.6167 360° North 160 184 5,000  Level Potomac TRACON
11:41AM 37.6333 -76.6167 360° North 155 178 5,000 -120 Level Potomac TRACON
11:41AM 37.6497 -76.6094 19° North 152 175 4,900 -180 Descending Washington Center
11:42AM 37.6642 -76.6097 359° North 150 173 4,900  Level Washington Center
11:42AM 37.7017 -76.6103 359° North 148 170 4,900  Level Washington Center
11:43AM 37.7475 -76.6081 North 153 176 4,900  Level Washington Center
11:44AM 37.7872 -76.6219 345° North 153 176 4,900  Level Washington Center
11:45AM 37.8289 -76.6225 359° North 148 170 4,900  Level Washington Center
11:46AM 37.8683 -76.6333 348° North 145 167 5,000  Climbing Washington Center
11:47AM 37.9122 -76.6367 357° North 151 174 4,900 -60 Descending Washington Center
11:48AM 37.9539 -76.6453 351° North 151 174 4,900  Level Washington Center
11:50AM 37.9956 -76.6406 North 155 178 4,900  Level Washington Center
11:51AM 38.0353 -76.6200 22° Northeast 165 190 5,000  Climbing Washington Center
11:52AM 38.0753 -76.5942 27° Northeast 157 181 4,900 -60 Descending Washington Center
11:52AM 38.1108 -76.5761 22° Northeast 159 183 4,900  Level Washington Center
11:53AM 38.1547 -76.5503 25° Northeast 162 186 4,900  Level Washington Center
11:54AM 38.1967 -76.5269 24° Northeast 162 186 4,900  Level Washington Center
11:56AM 38.2364 -76.5064 22° Northeast 160 184 4,900  Level Washington Center
11:57AM 38.2783 -76.4831 24° Northeast 159 183 4,900  Level Washington Center
11:58AM 38.3181 -76.4597 25° Northeast 156 180 4,900  Level Washington Center
11:59AM 38.3619 -76.4392 20° North 157 181 4,900  Level Washington Center
12:00PM 38.4019 -76.4156 25° Northeast 156 180 4,900  Level Washington Center
12:01PM 38.4394 -76.3975 21° North 154 177 4,900  Level Washington Center
12:02PM 38.4792 -76.3767 22° Northeast 156 180 5,000  Climbing Washington Center
12:03PM 38.5211 -76.3533 24° Northeast 156 180 5,000  Level Washington Center
12:05PM 38.6167 -76.3000 24° Northeast 157 181 5,000  Level Potomac TRACON
12:06PM 38.6500 -76.2833 21° North 147 169 5,000 -180 Level Potomac TRACON
12:07PM 38.6833 -76.2833 360° North 150 173 4,700 -480 Descending Potomac TRACON
12:08PM 38.7333 -76.3000 345° North 162 186 4,100 -600 Descending Potomac TRACON
12:09PM 38.7833 -76.3000 360° North 168 193 3,600 -600 Descending Potomac TRACON
12:10PM 38.8333 -76.3167 345° North 168 193 3,000 -300 Descending Potomac TRACON
12:11PM 38.8667 -76.3167 360° North 161 185 3,000  Level Potomac TRACON
12:12PM 38.9167 -76.3333 345° North 153 176 3,000 -60 Level Potomac TRACON
12:13PM 38.9500 -76.3333 360° North 154 177 2,900 -60 Descending Potomac TRACON
12:14PM 39.0000 -76.3500 345° North 151 174 2,900 -60 Level Potomac TRACON
12:15PM 39.0333 -76.3500 360° North 156 180 2,800 -360 Descending Potomac TRACON
12:16PM 39.0833 -76.3667 345° North 170 196 2,300 -480 Descending Potomac TRACON
12:17PM 39.1167 -76.3833 339° North 171 197 1,900 -360 Descending Potomac TRACON
12:18PM 39.1667 -76.3833 360° North 168 193 1,600 -300 Descending Potomac TRACON
12:19PM 39.2167 -76.3833 360° North 162 186 1,400 -300 Descending Potomac TRACON
12:20PM 39.2667 -76.4000 346° North 162 186 1,100 -300 Descending Potomac TRACON
12:21PM 39.3000 -76.4000 360° North 120 138 900 -180 Descending Potomac TRACON
12:22PM 39.3167 -76.4333 303° West 104 120 800 -300 Descending Potomac TRACON
12:23PM 39.3333 -76.4333 360° North 103 119 400 -420 Descending Potomac TRACON
12:25PM 39.3257 -76.4138 339° North  Level Estimated
12:32PM 39.3257 -76.4138 339° North  Level Estimated
12:33PM 39.3257 -76.4138 339° North  Level Estimated
12:34PM 39.3257 -76.4138 339° North  Level Estimated
12:35PM 39.3257 -76.4138 339° North  Level Estimated
12:36PM 39.3257 -76.4138 339° North  Level Estimated
12:37PM 39.3257 -76.4138 339° North  Level Estimated
12:38PM 39.3257 -76.4138 339° North  Level Estimated